Time;durP1;ratioP1;P1;durP2;ratioP2;P2;SDS_P1;SDS_P2;PMS_P1;PMS_P2;Temp;Humidity;BMP_temperature;BMP_pressure;BME280_temperature;BME280_humidity;BME280_pressure;Samples;Min_cycle;Max_cycle;Signal;HPM_P1;HPM_P2
2022/09/19 00:01:56;;;;;;;10.47;10.17;;;12.20;42.10;;;;;;4990502;28;20252;-47
2022/09/19 00:04:27;;;;;;;9.90;9.60;;;12.30;40.50;;;;;;4991203;28;20185;-46
2022/09/19 00:06:54;;;;;;;9.80;9.50;;;12.40;39.40;;;;;;4990694;28;21226;-45
2022/09/19 00:09:22;;;;;;;10.57;10.27;;;12.10;40.80;;;;;;5009389;28;20746;-47
2022/09/19 00:11:50;;;;;;;10.10;9.80;;;11.90;42.40;;;;;;4994362;28;20416;-45
2022/09/19 00:14:19;;;;;;;10.00;9.70;;;11.80;43.20;;;;;;4994298;28;20545;-44
2022/09/19 00:16:46;;;;;;;9.63;9.37;;;11.60;43.90;;;;;;4993676;28;20420;-44
2022/09/19 00:19:18;;;;;;;10.33;10.03;;;11.50;44.80;;;;;;4993577;28;20423;-41
2022/09/19 00:21:45;;;;;;;10.23;9.93;;;11.30;44.50;;;;;;4994129;28;20515;-46
2022/09/19 00:26:58;;;;;;;10.13;9.83;;;11.20;45.00;;;;;;5012422;28;20499;-42
2022/09/19 00:29:24;;;;;;;10.03;9.63;;;11.30;45.00;;;;;;4993793;28;20470;-44
2022/09/19 00:31:51;;;;;;;10.10;9.80;;;11.60;44.10;;;;;;4994153;28;20415;-44
2022/09/19 00:34:17;;;;;;;10.53;10.23;;;11.80;42.10;;;;;;4994110;28;20459;-45
2022/09/19 00:36:44;;;;;;;10.60;10.30;;;12.00;40.70;;;;;;5011688;28;20438;-47
2022/09/19 00:39:13;;;;;;;10.57;10.27;;;11.90;40.30;;;;;;4993946;28;20412;-43
2022/09/19 00:41:39;;;;;;;11.03;10.73;;;11.50;41.30;;;;;;4993897;28;20424;-40
2022/09/19 00:44:23;;;;;;;10.10;9.80;;;11.40;42.80;;;;;;4994033;28;20504;-45
2022/09/19 00:47:14;;;;;;;10.10;9.80;;;11.40;42.10;;;;;;5011154;28;20408;-42
2022/09/19 00:49:44;;;;;;;10.60;10.30;;;11.30;41.70;;;;;;5011167;28;20474;-41
2022/09/19 00:52:18;;;;;;;10.70;10.40;;;11.20;42.70;;;;;;4993592;28;20428;-46
2022/09/19 00:54:46;;;;;;;10.20;9.90;;;11.10;42.60;;;;;;5012166;28;20522;-47
2022/09/19 00:57:14;;;;;;;10.10;9.80;;;11.10;43.40;;;;;;4994444;28;20979;-47
2022/09/19 00:59:45;;;;;;;11.17;10.87;;;11.10;42.60;;;;;;4994202;28;20519;-45
2022/09/19 01:02:12;;;;;;;9.60;9.40;;;11.00;42.50;;;;;;4993864;28;20430;-45
2022/09/19 01:04:40;;;;;;;9.73;9.43;;;11.00;42.80;;;;;;4994036;28;20474;-45
2022/09/19 01:07:24;;;;;;;10.40;10.10;;;10.90;42.40;;;;;;4993454;28;20463;-45
2022/09/19 01:10:06;;;;;;;10.83;10.53;;;10.80;42.60;;;;;;4994160;28;20942;-45
2022/09/19 01:12:32;;;;;;;10.03;9.73;;;10.90;42.40;;;;;;4993701;28;20428;-42
2022/09/19 01:15:29;;;;;;;10.07;9.83;;;11.00;42.50;;;;;;4993245;28;20871;-41
2022/09/19 01:18:00;;;;;;;10.33;9.93;;;10.90;41.10;;;;;;4992806;28;20417;-45
2022/09/19 01:20:29;;;;;;;10.13;9.83;;;11.00;41.70;;;;;;4992426;28;20427;-48
2022/09/19 01:23:15;;;;;;;10.50;10.20;;;11.10;41.40;;;;;;5011170;28;20413;-50
2022/09/19 01:26:03;;;;;;;10.87;10.57;;;11.10;40.70;;;;;;4993076;28;20498;-51
2022/09/19 01:28:53;;;;;;;10.90;10.57;;;11.00;41.80;;;;;;4993119;28;20511;-42
2022/09/19 01:31:26;;;;;;;11.17;10.87;;;10.90;42.20;;;;;;5010910;28;20443;-48
2022/09/19 01:34:18;;;;;;;10.10;9.80;;;10.80;42.30;;;;;;4992648;28;20464;-47
2022/09/19 01:36:57;;;;;;;10.20;9.90;;;10.70;41.80;;;;;;4992872;28;20756;-41
2022/09/19 01:39:28;;;;;;;10.57;10.27;;;10.70;42.50;;;;;;4991943;28;20831;-41
2022/09/19 01:41:54;;;;;;;10.53;10.23;;;10.60;43.00;;;;;;4992168;28;20408;-44
2022/09/19 01:44:23;;;;;;;10.80;10.33;;;10.70;42.70;;;;;;4992521;28;20482;-43
2022/09/19 01:47:13;;;;;;;11.00;10.70;;;10.70;43.10;;;;;;4992420;28;20807;-45
2022/09/19 01:50:09;;;;;;;10.13;9.87;;;10.60;43.10;;;;;;4992348;28;20420;-46
2022/09/19 01:52:51;;;;;;;10.23;9.93;;;10.50;44.90;;;;;;4992043;28;20416;-47
2022/09/19 01:55:26;;;;;;;10.50;10.00;;;10.60;45.80;;;;;;4992154;28;20464;-46
2022/09/19 01:58:11;;;;;;;10.80;10.50;;;10.50;45.00;;;;;;4991827;28;20907;-46
2022/09/19 02:00:41;;;;;;;10.97;10.57;;;10.60;44.90;;;;;;4992925;28;20408;-46
2022/09/19 02:03:27;;;;;;;11.00;10.70;;;10.60;44.60;;;;;;4991970;28;20420;-43
2022/09/19 02:06:14;;;;;;;10.80;10.50;;;10.50;43.60;;;;;;4991835;28;20511;-41
2022/09/19 02:09:15;;;;;;;10.73;10.33;;;10.50;44.70;;;;;;4992421;28;20519;-40
2022/09/19 02:11:42;;;;;;;10.63;10.33;;;10.70;44.40;;;;;;4991956;28;20753;-44
2022/09/19 02:14:16;;;;;;;10.60;10.30;;;10.70;43.30;;;;;;4992060;28;20471;-46
2022/09/19 02:17:07;;;;;;;11.07;10.77;;;10.80;42.90;;;;;;4992591;28;20786;-46
2022/09/19 02:19:54;;;;;;;10.97;10.57;;;10.80;42.10;;;;;;4985968;28;20412;-47
2022/09/19 02:22:31;;;;;;;11.40;11.10;;;10.80;42.30;;;;;;4991721;28;20431;-41
2022/09/19 02:25:08;;;;;;;11.53;10.80;;;10.70;42.00;;;;;;4991616;28;20443;-43
2022/09/19 02:27:43;;;;;;;10.90;10.60;;;10.60;42.40;;;;;;4991867;28;20944;-43
2022/09/19 02:30:10;;;;;;;11.40;11.00;;;10.60;42.50;;;;;;4991265;28;20428;-42
2022/09/19 02:32:37;;;;;;;11.47;11.17;;;10.60;42.10;;;;;;4991481;28;20416;-48
2022/09/19 02:35:04;;;;;;;11.40;11.00;;;10.50;42.50;;;;;;4992116;28;20467;-47
2022/09/19 02:37:41;;;;;;;11.07;10.77;;;10.40;42.30;;;;;;4991951;28;20424;-49
2022/09/19 02:40:28;;;;;;;11.73;11.33;;;10.50;43.30;;;;;;4992242;28;20478;-50
2022/09/19 02:43:20;;;;;;;11.73;11.43;;;10.50;42.30;;;;;;4991806;28;20503;-46
2022/09/19 02:45:55;;;;;;;11.07;10.57;;;10.50;42.40;;;;;;4991764;28;20416;-48
2022/09/19 02:48:27;;;;;;;11.40;11.07;;;10.50;42.10;;;;;;4991939;28;20419;-50
2022/09/19 02:50:59;;;;;;;11.73;11.10;;;10.50;42.60;;;;;;4991283;28;20781;-49
2022/09/19 02:53:29;;;;;;;11.60;11.20;;;10.60;42.60;;;;;;4991352;28;20409;-44
2022/09/19 02:56:00;;;;;;;11.70;11.30;;;10.60;42.10;;;;;;4991717;28;20440;-41
2022/09/19 02:58:32;;;;;;;11.97;11.57;;;10.60;42.10;;;;;;4991529;28;20401;-41
2022/09/19 03:01:05;;;;;;;11.80;11.30;;;10.40;42.00;;;;;;4991252;28;20444;-47
2022/09/19 03:06:33;;;;;;;11.40;11.00;;;10.40;42.50;;;;;;5009266;28;20427;-42
2022/09/19 03:09:01;;;;;;;12.07;11.53;;;10.50;42.00;;;;;;4991227;28;20474;-45
2022/09/19 03:11:30;;;;;;;12.40;12.00;;;10.50;42.00;;;;;;4990864;28;21111;-45
2022/09/19 03:13:58;;;;;;;11.67;11.27;;;10.50;41.30;;;;;;4991052;28;20463;-42
2022/09/19 03:16:35;;;;;;;11.73;11.33;;;10.40;42.00;;;;;;4991205;28;20566;-42
2022/09/19 03:19:10;;;;;;;11.60;11.20;;;10.40;42.00;;;;;;4990832;28;20408;-43
2022/09/19 03:21:38;;;;;;;12.03;11.50;;;10.40;41.30;;;;;;4990735;28;20403;-42
2022/09/19 03:24:05;;;;;;;11.47;11.00;;;10.60;41.20;;;;;;4991588;28;20424;-48
2022/09/19 03:26:34;;;;;;;11.17;10.80;;;10.70;40.20;;;;;;4991102;28;20439;-46
2022/09/19 03:29:02;;;;;;;12.10;11.60;;;10.80;40.20;;;;;;4991713;28;20416;-47
2022/09/19 03:31:28;;;;;;;12.60;11.93;;;10.80;40.50;;;;;;4991400;28;20944;-42
2022/09/19 03:33:57;;;;;;;12.60;11.90;;;10.80;39.60;;;;;;4990545;28;20539;-42
2022/09/19 03:36:28;;;;;;;12.80;12.20;;;10.70;40.00;;;;;;4991502;28;20408;-42
2022/09/19 03:38:55;;;;;;;11.50;11.10;;;10.60;40.60;;;;;;4991659;28;20439;-45
2022/09/19 03:41:22;;;;;;;12.43;11.30;;;10.70;40.80;;;;;;4990765;28;20471;-45
2022/09/19 03:43:48;;;;;;;13.03;12.40;;;10.60;40.40;;;;;;4991998;28;20412;-42
2022/09/19 03:46:17;;;;;;;12.20;11.47;;;10.60;40.90;;;;;;4994573;28;20423;-41
2022/09/19 03:48:47;;;;;;;11.43;11.03;;;10.50;40.90;;;;;;4994281;28;20433;-42
2022/09/19 03:51:15;;;;;;;12.03;11.53;;;10.60;41.30;;;;;;4994991;28;20412;-42
2022/09/19 03:53:43;;;;;;;12.13;11.63;;;10.70;41.60;;;;;;4994613;28;20712;-44
2022/09/19 03:56:13;;;;;;;12.37;11.70;;;10.50;42.00;;;;;;4993987;28;20444;-43
2022/09/19 03:58:40;;;;;;;13.63;12.90;;;10.40;42.00;;;;;;4993927;28;20774;-45
2022/09/19 04:01:06;;;;;;;11.90;11.40;;;10.30;42.20;;;;;;4994360;28;20413;-50
2022/09/19 04:03:37;;;;;;;11.77;11.27;;;10.40;42.60;;;;;;4994737;28;20412;-47
2022/09/19 04:06:04;;;;;;;12.47;12.00;;;10.50;42.10;;;;;;4995095;28;20413;-48
2022/09/19 04:08:30;;;;;;;12.37;11.67;;;10.60;42.20;;;;;;4994975;28;20913;-48
2022/09/19 04:10:56;;;;;;;12.30;11.70;;;10.60;42.10;;;;;;4995014;28;20451;-47
2022/09/19 04:13:21;;;;;;;13.00;12.20;;;10.70;42.10;;;;;;4994676;28;20450;-47
2022/09/19 04:15:48;;;;;;;13.27;12.57;;;10.80;41.10;;;;;;4994438;28;20209;-52
2022/09/19 04:18:15;;;;;;;12.77;11.90;;;10.90;40.50;;;;;;4994237;28;20545;-48
2022/09/19 04:20:40;;;;;;;12.23;11.60;;;10.70;40.90;;;;;;4994396;28;20862;-46
2022/09/19 04:23:07;;;;;;;12.83;12.33;;;10.70;41.80;;;;;;5011780;28;20409;-42
2022/09/19 04:25:35;;;;;;;12.83;12.23;;;10.50;42.00;;;;;;4993555;28;20258;-42
2022/09/19 04:28:06;;;;;;;13.63;13.00;;;10.40;42.20;;;;;;4993345;28;20543;-42
2022/09/19 04:30:36;;;;;;;13.23;12.63;;;10.40;42.50;;;;;;4994024;28;20416;-42
2022/09/19 04:33:04;;;;;;;12.20;11.70;;;10.50;42.90;;;;;;4993394;28;20847;-43
2022/09/19 04:35:34;;;;;;;13.40;12.63;;;10.50;42.90;;;;;;5012090;28;20822;-42
2022/09/19 04:38:04;;;;;;;12.43;11.93;;;10.60;42.10;;;;;;4993934;28;20424;-44
2022/09/19 04:40:30;;;;;;;13.00;12.40;;;10.70;42.60;;;;;;4993602;28;20451;-46
2022/09/19 04:42:57;;;;;;;13.10;12.60;;;10.90;42.40;;;;;;4993847;28;20553;-49
2022/09/19 04:45:23;;;;;;;13.60;12.83;;;10.80;41.50;;;;;;4993721;28;20753;-51
2022/09/19 04:47:48;;;;;;;13.03;12.43;;;10.80;41.90;;;;;;4994617;28;20491;-49
2022/09/19 04:50:15;;;;;;;12.77;12.27;;;10.70;42.60;;;;;;4993951;28;20181;-47
2022/09/19 04:52:41;;;;;;;13.33;12.73;;;10.70;42.90;;;;;;4994289;28;20181;-46
2022/09/19 04:55:08;;;;;;;12.43;11.83;;;10.60;42.10;;;;;;5010518;28;20836;-47
2022/09/19 04:57:34;;;;;;;12.00;11.53;;;10.60;42.10;;;;;;4993682;28;20454;-46
2022/09/19 04:59:59;;;;;;;12.00;11.50;;;10.60;42.70;;;;;;4993715;28;20405;-52
2022/09/19 05:02:28;;;;;;;12.53;12.00;;;10.50;43.00;;;;;;4994562;28;20169;-46
2022/09/19 05:04:55;;;;;;;13.17;12.47;;;10.50;43.00;;;;;;4993337;28;20192;-47
2022/09/19 05:07:27;;;;;;;13.83;13.23;;;10.50;43.00;;;;;;4993706;28;20416;-46
2022/09/19 05:09:52;;;;;;;13.30;12.77;;;10.50;43.50;;;;;;4993682;28;20426;-48
2022/09/19 05:12:18;;;;;;;14.67;13.97;;;10.70;42.20;;;;;;4994512;28;20539;-48
2022/09/19 05:14:46;;;;;;;13.30;12.50;;;10.70;42.40;;;;;;4993486;28;20201;-48
2022/09/19 05:17:12;;;;;;;13.00;12.50;;;10.60;42.60;;;;;;4993706;28;20427;-49
2022/09/19 05:19:38;;;;;;;13.63;13.00;;;10.50;42.90;;;;;;4993291;28;20412;-48
2022/09/19 05:22:04;;;;;;;13.40;12.70;;;10.70;43.10;;;;;;4993276;28;20205;-45
2022/09/19 05:24:29;;;;;;;14.70;13.63;;;10.60;42.10;;;;;;4992806;28;20193;-49
2022/09/19 05:26:56;;;;;;;13.70;13.00;;;10.70;42.30;;;;;;5010925;28;20174;-47
2022/09/19 05:29:22;;;;;;;14.00;13.00;;;10.70;42.20;;;;;;4992494;28;20272;-42
2022/09/19 05:31:48;;;;;;;12.80;12.20;;;10.80;42.30;;;;;;4992315;28;20899;-44
2022/09/19 05:34:13;;;;;;;14.13;13.33;;;10.90;41.40;;;;;;4992571;28;20468;-42
2022/09/19 05:36:40;;;;;;;14.33;13.27;;;10.90;41.30;;;;;;4992749;28;20181;-48
2022/09/19 05:39:06;;;;;;;14.00;13.23;;;11.00;41.50;;;;;;4993053;28;20209;-49
2022/09/19 05:41:33;;;;;;;15.13;14.10;;;11.00;41.30;;;;;;4993891;28;20419;-50
2022/09/19 05:43:58;;;;;;;14.23;13.53;;;11.10;41.30;;;;;;4993352;28;20416;-47
2022/09/19 05:46:24;;;;;;;13.93;13.20;;;11.10;41.00;;;;;;4993244;28;20958;-50
2022/09/19 05:48:50;;;;;;;14.03;13.23;;;11.10;41.90;;;;;;4992855;28;20204;-43
2022/09/19 05:51:16;;;;;;;12.47;11.97;;;10.90;41.50;;;;;;4993232;28;20634;-41
2022/09/19 05:53:54;;;;;;;13.57;12.53;;;10.90;42.40;;;;;;4992371;28;20576;-43
2022/09/19 05:56:21;;;;;;;13.97;13.27;;;10.90;43.10;;;;;;4992246;28;20411;-43
2022/09/19 05:58:47;;;;;;;15.20;14.20;;;10.90;42.20;;;;;;4992563;28;20507;-47
2022/09/19 06:01:13;;;;;;;13.40;12.73;;;10.90;42.30;;;;;;5009972;28;20496;-49
2022/09/19 06:03:40;;;;;;;12.97;12.37;;;11.00;42.40;;;;;;4992951;28;20545;-48
2022/09/19 06:06:18;;;;;;;14.27;13.17;;;11.20;41.20;;;;;;4992330;28;20455;-49
2022/09/19 06:08:45;;;;;;;14.00;13.03;;;11.20;40.80;;;;;;4991721;28;20463;-49
2022/09/19 06:11:11;;;;;;;14.20;13.50;;;11.10;41.50;;;;;;4992263;28;20907;-51
2022/09/19 06:16:21;;;;;;;14.40;13.40;;;11.20;41.20;;;;;;5010662;28;20435;-52
2022/09/19 06:18:47;;;;;;;14.23;13.50;;;11.20;41.40;;;;;;4991981;28;20417;-47
2022/09/19 06:21:13;;;;;;;14.00;13.40;;;11.20;41.40;;;;;;4992366;28;20232;-46
2022/09/19 06:23:40;;;;;;;14.17;13.47;;;11.20;42.30;;;;;;4992116;28;20412;-42
2022/09/19 06:26:06;;;;;;;14.33;13.63;;;11.20;41.30;;;;;;4991414;28;20531;-41
2022/09/19 06:28:32;;;;;;;13.67;12.87;;;11.10;42.00;;;;;;4991624;28;20500;-47
2022/09/19 06:31:04;;;;;;;13.80;12.97;;;11.10;42.60;;;;;;4991611;28;20499;-48
2022/09/19 06:33:31;;;;;;;17.40;16.00;;;11.00;42.10;;;;;;4990834;28;20208;-41
2022/09/19 06:36:00;;;;;;;13.23;12.60;;;11.00;42.50;;;;;;4991292;28;20848;-47
2022/09/19 06:38:27;;;;;;;12.83;12.20;;;11.00;42.50;;;;;;4991493;28;20456;-42
2022/09/19 06:40:53;;;;;;;14.73;13.80;;;11.00;42.50;;;;;;4991752;28;20843;-45
2022/09/19 06:43:19;;;;;;;14.73;13.63;;;11.00;42.50;;;;;;4991672;28;20428;-44
2022/09/19 06:45:47;;;;;;;13.93;13.13;;;11.10;42.60;;;;;;4991557;28;20994;-46
2022/09/19 06:48:13;;;;;;;13.53;12.73;;;11.10;42.40;;;;;;4991053;28;20174;-43
2022/09/19 06:50:38;;;;;;;13.67;12.90;;;11.10;42.60;;;;;;4991805;28;20980;-42
2022/09/19 06:53:04;;;;;;;13.63;12.80;;;11.10;42.60;;;;;;4991709;28;20211;-44
2022/09/19 06:55:30;;;;;;;12.93;12.30;;;11.20;42.70;;;;;;4991518;28;20267;-46
2022/09/19 06:57:58;;;;;;;13.47;12.60;;;11.30;42.00;;;;;;4990915;28;20205;-44
2022/09/19 07:00:26;;;;;;;13.30;12.43;;;11.30;42.30;;;;;;5023863;28;20545;-43
2022/09/19 07:02:59;;;;;;;12.77;12.07;;;11.30;41.80;;;;;;4991732;28;20415;-45
2022/09/19 07:05:26;;;;;;;13.00;11.80;;;11.50;42.50;;;;;;5008865;28;20412;-41
2022/09/19 07:07:52;;;;;;;13.83;12.97;;;11.50;41.40;;;;;;4991410;28;20951;-44
2022/09/19 07:10:19;;;;;;;12.90;12.10;;;11.50;41.60;;;;;;4991401;28;20408;-42
2022/09/19 07:12:56;;;;;;;13.60;12.80;;;11.60;41.00;;;;;;4991186;28;20177;-48
2022/09/19 07:15:23;;;;;;;13.60;12.80;;;11.70;39.70;;;;;;4991151;28;20829;-43
2022/09/19 07:17:49;;;;;;;13.57;12.87;;;11.80;40.60;;;;;;4991355;28;20408;-45
2022/09/19 07:20:15;;;;;;;13.80;13.10;;;12.00;39.60;;;;;;4997847;28;20428;-45
2022/09/19 07:22:41;;;;;;;14.50;13.60;;;11.90;39.40;;;;;;4997617;28;20180;-45
2022/09/19 07:25:07;;;;;;;14.63;13.73;;;11.90;39.20;;;;;;4996762;28;20526;-45
2022/09/19 07:27:34;;;;;;;14.30;13.33;;;11.80;39.60;;;;;;4997822;28;20419;-47
2022/09/19 07:29:59;;;;;;;12.90;12.30;;;11.90;39.80;;;;;;4997263;28;20421;-45
2022/09/19 07:32:26;;;;;;;13.67;12.80;;;12.00;40.40;;;;;;4997451;28;20496;-45
2022/09/19 07:34:51;;;;;;;13.60;12.60;;;12.20;40.10;;;;;;4997550;28;20204;-44
2022/09/19 07:37:17;;;;;;;13.33;12.30;;;12.30;39.20;;;;;;4997392;28;20404;-45
2022/09/19 07:39:43;;;;;;;11.97;11.43;;;12.30;38.60;;;;;;4998060;28;20227;-43
2022/09/19 07:42:09;;;;;;;13.57;12.87;;;12.10;38.70;;;;;;4997156;28;20173;-46
2022/09/19 07:44:35;;;;;;;12.97;12.00;;;12.10;38.90;;;;;;4999027;28;20173;-45
2022/09/19 07:49:44;;;;;;;12.30;11.70;;;12.20;39.80;;;;;;5015368;28;20426;-48
2022/09/19 07:52:10;;;;;;;13.00;12.13;;;12.30;39.30;;;;;;4997956;28;20420;-41
2022/09/19 07:54:36;;;;;;;12.67;11.70;;;12.30;39.40;;;;;;4997023;28;20201;-42
2022/09/19 07:57:01;;;;;;;12.83;12.17;;;12.40;39.00;;;;;;4997742;28;20184;-45
2022/09/19 07:59:27;;;;;;;12.13;11.53;;;12.40;38.70;;;;;;4997045;28;20229;-44
2022/09/19 08:01:53;;;;;;;11.90;11.10;;;12.20;38.90;;;;;;5014615;28;20196;-42
2022/09/19 08:04:18;;;;;;;11.33;10.73;;;12.20;39.20;;;;;;4997162;28;20209;-42
2022/09/19 08:06:44;;;;;;;11.60;11.10;;;12.20;39.10;;;;;;4997628;28;20177;-42
2022/09/19 08:09:10;;;;;;;11.33;10.83;;;12.30;39.10;;;;;;4997191;28;20196;-46
2022/09/19 08:11:36;;;;;;;12.53;11.67;;;12.30;38.70;;;;;;4998162;28;20188;-46
2022/09/19 08:14:02;;;;;;;15.23;14.03;;;12.20;38.60;;;;;;4997870;28;20471;-47
2022/09/19 08:16:28;;;;;;;13.27;12.40;;;12.10;39.20;;;;;;4997726;28;20177;-48
2022/09/19 08:18:53;;;;;;;12.53;11.93;;;12.20;39.30;;;;;;4997357;28;20418;-47
2022/09/19 08:21:19;;;;;;;12.93;12.20;;;12.20;39.40;;;;;;4997044;28;20169;-50
2022/09/19 08:23:45;;;;;;;12.53;11.73;;;12.30;39.80;;;;;;5015391;28;20594;-48
2022/09/19 08:26:11;;;;;;;12.47;11.60;;;12.30;38.80;;;;;;4997714;28;20436;-50
2022/09/19 08:28:37;;;;;;;11.53;10.80;;;12.20;39.00;;;;;;4997650;28;20474;-51
2022/09/19 08:31:03;;;;;;;12.57;11.60;;;12.20;39.50;;;;;;4993576;28;20178;-51
2022/09/19 08:33:30;;;;;;;12.60;11.80;;;12.20;39.40;;;;;;4994057;28;20419;-50
2022/09/19 08:35:58;;;;;;;12.17;11.43;;;12.30;39.10;;;;;;4994501;28;20482;-47
2022/09/19 08:38:24;;;;;;;13.93;12.90;;;12.20;39.10;;;;;;4994642;28;20470;-49
2022/09/19 08:41:09;;;;;;;12.57;11.57;;;12.40;38.80;;;;;;4994245;28;20929;-47
2022/09/19 08:43:43;;;;;;;12.23;11.20;;;12.30;39.10;;;;;;4987346;28;20420;-49
2022/09/19 08:46:28;;;;;;;12.30;11.63;;;12.30;39.30;;;;;;4994381;28;20959;-51
2022/09/19 08:49:25;;;;;;;13.07;12.10;;;12.50;39.60;;;;;;4994113;28;20946;-47
2022/09/19 08:52:02;;;;;;;12.00;11.27;;;12.60;38.90;;;;;;4991958;28;20447;-46
2022/09/19 08:54:41;;;;;;;12.43;11.33;;;12.90;37.20;;;;;;4993601;28;20847;-45
2022/09/19 08:57:42;;;;;;;12.80;11.73;;;13.10;36.30;;;;;;4993946;28;20408;-47
2022/09/19 09:00:17;;;;;;;12.77;11.87;;;12.90;36.10;;;;;;4984502;28;20907;-45
2022/09/19 09:02:52;;;;;;;11.77;11.10;;;12.80;36.70;;;;;;4994227;28;20412;-46
2022/09/19 09:05:42;;;;;;;12.50;11.43;;;12.80;36.50;;;;;;4993983;28;20783;-44
2022/09/19 09:08:33;;;;;;;11.40;10.90;;;12.90;36.30;;;;;;4994026;28;20784;-44
2022/09/19 09:11:07;;;;;;;11.20;10.20;;;13.10;35.80;;;;;;4994005;28;20788;-44
2022/09/19 09:13:42;;;;;;;12.53;11.53;;;13.20;35.50;;;;;;4993937;28;20463;-43
2022/09/19 09:16:27;;;;;;;11.00;10.00;;;13.00;35.50;;;;;;4993844;28;20420;-42
2022/09/19 09:19:17;;;;;;;11.50;10.73;;;13.00;36.10;;;;;;4993374;28;20417;-45
2022/09/19 09:22:25;;;;;;;10.33;9.93;;;13.10;35.70;;;;;;4993381;28;20529;-44
2022/09/19 09:25:05;;;;;;;11.03;10.23;;;13.30;34.40;;;;;;4933859;29;20450;-41
2022/09/19 09:27:38;;;;;;;11.23;10.57;;;13.40;34.50;;;;;;4934071;29;20441;-44
2022/09/19 09:30:13;;;;;;;11.67;10.90;;;13.50;33.50;;;;;;4971673;28;20503;-46
2022/09/19 09:32:46;;;;;;;11.03;10.63;;;13.50;33.00;;;;;;4992976;28;20424;-43
2022/09/19 09:35:18;;;;;;;12.27;11.33;;;13.60;32.80;;;;;;4993203;28;20465;-43
2022/09/19 09:38:01;;;;;;;12.70;12.10;;;13.60;32.40;;;;;;4992731;28;20892;-44
2022/09/19 09:43:57;;;;;;;12.87;12.00;;;13.60;32.20;;;;;;5011161;28;20426;-46
2022/09/19 09:46:53;;;;;;;12.93;11.80;;;13.70;32.20;;;;;;4992500;28;20459;-45
2022/09/19 09:49:28;;;;;;;14.80;11.53;;;13.60;32.80;;;;;;4993017;28;20515;-41
2022/09/19 09:52:23;;;;;;;11.87;10.90;;;13.40;33.10;;;;;;4992637;28;20446;-42
2022/09/19 09:58:12;;;;;;;10.60;10.30;;;13.50;33.50;;;;;;4988884;28;20755;-48
2022/09/19 10:03:49;;;;;;;10.97;10.40;;;13.60;33.20;;;;;;5010408;28;20446;-46
2022/09/19 10:06:43;;;;;;;13.07;12.27;;;13.70;31.80;;;;;;4992901;28;20979;-48
2022/09/19 10:09:18;;;;;;;13.10;12.40;;;13.70;32.00;;;;;;4992498;28;20423;-46
2022/09/19 10:12:14;;;;;;;12.73;11.97;;;13.70;32.10;;;;;;4992385;28;20443;-52
2022/09/19 10:14:41;;;;;;;11.80;11.00;;;13.50;31.40;;;;;;4992415;28;20460;-49
2022/09/19 10:17:08;;;;;;;11.60;11.07;;;13.30;32.40;;;;;;4992956;28;20754;-47
2022/09/19 10:19:51;;;;;;;11.60;11.10;;;13.50;32.50;;;;;;4992309;28;20786;-51
2022/09/19 10:22:17;;;;;;;11.03;10.37;;;13.70;31.90;;;;;;4992970;28;20420;-46
2022/09/19 10:24:55;;;;;;;11.43;10.63;;;13.90;32.40;;;;;;4992685;28;20443;-50
2022/09/19 10:27:26;;;;;;;11.40;11.00;;;14.00;31.10;;;;;;4992541;28;20767;-46
2022/09/19 10:30:00;;;;;;;13.23;12.17;;;14.10;31.30;;;;;;4976561;28;20583;-50
2022/09/19 10:32:38;;;;;;;12.07;11.47;;;14.00;30.80;;;;;;4992743;28;20800;-46
2022/09/19 10:35:43;;;;;;;11.60;11.20;;;14.00;32.00;;;;;;4992674;28;20555;-48
2022/09/19 10:38:12;;;;;;;11.27;10.57;;;14.10;31.80;;;;;;4992720;28;20408;-50
2022/09/19 10:40:57;;;;;;;11.83;11.20;;;14.10;31.90;;;;;;4992197;28;20423;-51
2022/09/19 10:43:30;;;;;;;12.40;11.70;;;14.10;31.70;;;;;;4991878;28;20784;-49
2022/09/19 10:45:57;;;;;;;11.20;10.60;;;14.20;31.90;;;;;;4992000;28;20416;-49
2022/09/19 10:48:29;;;;;;;11.57;11.07;;;14.30;30.90;;;;;;4992460;28;20420;-46
2022/09/19 10:50:55;;;;;;;11.80;11.20;;;14.20;31.50;;;;;;4992126;28;20493;-48
2022/09/19 10:53:27;;;;;;;11.50;11.00;;;14.20;32.00;;;;;;4991798;28;20431;-50
2022/09/19 10:55:55;;;;;;;12.40;11.70;;;14.30;31.20;;;;;;4992122;28;20951;-52
2022/09/19 10:58:27;;;;;;;11.50;11.10;;;14.30;31.00;;;;;;4991616;28;20798;-47
2022/09/19 11:00:57;;;;;;;11.67;11.27;;;14.20;31.60;;;;;;4992552;28;20420;-49
2022/09/19 11:03:35;;;;;;;11.03;10.60;;;14.30;31.50;;;;;;4992152;28;20413;-49
2022/09/19 11:06:16;;;;;;;11.87;11.30;;;14.40;31.50;;;;;;4991977;28;20424;-49
2022/09/19 11:08:47;;;;;;;12.33;11.83;;;14.20;32.00;;;;;;4992840;28;20417;-47
2022/09/19 11:11:37;;;;;;;12.47;11.83;;;14.20;32.00;;;;;;4992380;28;20927;-46
2022/09/19 11:14:12;;;;;;;21.03;19.53;;;14.30;31.70;;;;;;4992204;28;20456;-49
2022/09/19 11:16:49;;;;;;;11.17;10.77;;;14.40;31.40;;;;;;4992164;28;20931;-43
2022/09/19 11:19:36;;;;;;;11.60;10.70;;;14.40;31.50;;;;;;4991639;28;20416;-42
2022/09/19 11:22:17;;;;;;;11.00;10.60;;;14.30;31.30;;;;;;4992005;28;20573;-43
2022/09/19 11:24:53;;;;;;;10.93;10.30;;;14.50;30.80;;;;;;4991395;28;20440;-45
2022/09/19 11:27:31;;;;;;;10.60;10.30;;;14.60;29.90;;;;;;4992087;28;20471;-45
2022/09/19 11:30:05;;;;;;;11.77;10.83;;;14.60;30.00;;;;;;4991104;28;20423;-43
2022/09/19 11:33:02;;;;;;;10.70;10.20;;;14.60;30.00;;;;;;4991171;28;20423;-47
2022/09/19 11:35:36;;;;;;;10.00;9.70;;;14.60;30.60;;;;;;4990941;28;20555;-41
2022/09/19 11:38:28;;;;;;;10.87;10.47;;;14.60;30.50;;;;;;4991837;28;20424;-43
2022/09/19 11:41:06;;;;;;;10.73;10.33;;;14.70;30.10;;;;;;4991339;28;20900;-44
2022/09/19 11:43:53;;;;;;;11.33;10.90;;;14.80;30.00;;;;;;4990872;28;20928;-41
2022/09/19 11:46:56;;;;;;;11.83;11.23;;;14.80;30.30;;;;;;4991257;28;20435;-41
2022/09/19 11:49:50;;;;;;;11.20;10.80;;;14.90;30.30;;;;;;5008882;28;20782;-44
2022/09/19 11:52:50;;;;;;;10.77;10.27;;;14.80;30.50;;;;;;4992235;28;20466;-48
2022/09/19 11:55:50;;;;;;;11.20;10.50;;;14.80;30.60;;;;;;4991663;28;20468;-47
2022/09/19 11:58:25;;;;;;;11.37;10.77;;;14.90;29.70;;;;;;4991667;28;20984;-48
2022/09/19 12:01:05;;;;;;;11.33;10.93;;;14.90;29.80;;;;;;4992266;28;20418;-50
2022/09/19 12:03:37;;;;;;;11.23;10.30;;;14.90;30.30;;;;;;4991607;28;20503;-47
2022/09/19 12:06:14;;;;;;;11.13;10.77;;;14.80;30.50;;;;;;4994100;28;20458;-46
2022/09/19 12:09:12;;;;;;;12.10;11.60;;;14.80;30.30;;;;;;4995760;28;21029;-46
2022/09/19 12:11:49;;;;;;;11.83;11.43;;;14.80;30.40;;;;;;4987152;28;20424;-45
2022/09/19 12:14:24;;;;;;;11.97;11.57;;;14.80;31.00;;;;;;4994735;28;20490;-50
2022/09/19 12:16:58;;;;;;;11.47;10.97;;;14.80;30.90;;;;;;4994964;28;20407;-48
2022/09/19 12:19:34;;;;;;;11.80;11.40;;;14.80;32.00;;;;;;4995055;28;20470;-45
2022/09/19 12:22:12;;;;;;;12.77;11.87;;;14.80;31.70;;;;;;4995182;28;20420;-45
2022/09/19 12:24:52;;;;;;;12.67;12.17;;;14.90;31.30;;;;;;4994558;28;20490;-46
2022/09/19 12:27:35;;;;;;;11.70;11.30;;;14.90;30.60;;;;;;4995208;28;20420;-49
2022/09/19 12:30:13;;;;;;;10.93;10.63;;;14.90;31.00;;;;;;4994946;28;20459;-47
2022/09/19 12:32:51;;;;;;;11.33;10.93;;;14.90;31.00;;;;;;4995191;28;20427;-46
2022/09/19 12:35:42;;;;;;;11.40;10.90;;;15.00;30.90;;;;;;4994515;28;20475;-46
2022/09/19 12:38:25;;;;;;;11.80;11.40;;;15.00;30.70;;;;;;4995330;28;20507;-46
2022/09/19 12:41:20;;;;;;;12.50;12.00;;;15.10;30.00;;;;;;4995133;28;20486;-52
2022/09/19 12:43:58;;;;;;;11.47;10.97;;;15.00;30.00;;;;;;5011841;28;20774;-52
2022/09/19 12:46:27;;;;;;;11.60;11.10;;;15.10;29.80;;;;;;5014312;28;20419;-47
2022/09/19 12:49:03;;;;;;;11.40;10.90;;;15.20;28.60;;;;;;5014215;28;20427;-49
2022/09/19 12:52:04;;;;;;;11.27;10.87;;;15.00;29.10;;;;;;5014369;28;20573;-48
2022/09/19 12:54:58;;;;;;;11.93;11.33;;;15.10;29.70;;;;;;5014470;28;20849;-47
2022/09/19 12:57:35;;;;;;;10.80;10.30;;;15.10;29.50;;;;;;5013939;28;20419;-48
2022/09/19 13:00:01;;;;;;;12.23;11.43;;;15.10;30.10;;;;;;5013698;28;20422;-44
2022/09/19 13:02:29;;;;;;;12.20;11.70;;;15.20;29.80;;;;;;5032308;28;20416;-45
2022/09/19 13:04:58;;;;;;;11.70;11.10;;;15.30;29.80;;;;;;5013903;28;20279;-45
2022/09/19 13:07:36;;;;;;;11.73;11.23;;;15.40;29.60;;;;;;5014269;28;20436;-45
2022/09/19 13:10:09;;;;;;;12.33;11.70;;;15.40;28.70;;;;;;5013533;28;20832;-43
2022/09/19 13:12:49;;;;;;;13.97;13.23;;;15.50;28.30;;;;;;5032248;28;20582;-43
2022/09/19 13:15:29;;;;;;;12.40;11.70;;;15.40;28.90;;;;;;5044672;28;20466;-42
2022/09/19 13:23:35;;;;;;;15.20;14.00;;;15.40;28.50;;;;;;5031370;28;20415;-40
2022/09/19 13:26:37;;;;;;;14.70;13.40;;;15.40;28.20;;;;;;5011909;28;20455;-45